sensor_id;sensor_type;location;lat;lon;timestamp;P1;durP1;ratioP1;P2;durP2;ratioP2
46006;SDS011;31738;50.188;8.524;2022-11-04T00:01:44;35.22;;;16.15;;
46006;SDS011;31738;50.188;8.524;2022-11-04T00:04:11;35.08;;;17.13;;
46006;SDS011;31738;50.188;8.524;2022-11-04T00:06:38;34.67;;;16.88;;
46006;SDS011;31738;50.188;8.524;2022-11-04T00:09:05;33.13;;;16.98;;
46006;SDS011;31738;50.188;8.524;2022-11-04T00:11:32;35.95;;;16.17;;
46006;SDS011;31738;50.188;8.524;2022-11-04T00:14:17;27.33;;;14.85;;
46006;SDS011;31738;50.188;8.524;2022-11-04T00:16:43;37.80;;;16.27;;
46006;SDS011;31738;50.188;8.524;2022-11-04T00:19:27;40.58;;;17.55;;
46006;SDS011;31738;50.188;8.524;2022-11-04T00:21:53;33.45;;;16.92;;
46006;SDS011;31738;50.188;8.524;2022-11-04T00:24:38;34.30;;;16.50;;
46006;SDS011;31738;50.188;8.524;2022-11-04T00:27:16;35.08;;;16.70;;
46006;SDS011;31738;50.188;8.524;2022-11-04T00:30:02;30.60;;;15.88;;
46006;SDS011;31738;50.188;8.524;2022-11-04T00:32:33;30.92;;;15.73;;
46006;SDS011;31738;50.188;8.524;2022-11-04T00:35:17;28.58;;;13.73;;
46006;SDS011;31738;50.188;8.524;2022-11-04T00:37:43;23.77;;;12.77;;
46006;SDS011;31738;50.188;8.524;2022-11-04T00:40:10;23.17;;;11.50;;
46006;SDS011;31738;50.188;8.524;2022-11-04T00:42:37;20.08;;;11.73;;
46006;SDS011;31738;50.188;8.524;2022-11-04T00:45:03;16.63;;;8.38;;
46006;SDS011;31738;50.188;8.524;2022-11-04T00:47:29;12.57;;;7.18;;
46006;SDS011;31738;50.188;8.524;2022-11-04T00:49:54;9.68;;;5.85;;
46006;SDS011;31738;50.188;8.524;2022-11-04T00:52:20;15.45;;;6.57;;
46006;SDS011;31738;50.188;8.524;2022-11-04T00:54:45;7.95;;;4.60;;
46006;SDS011;31738;50.188;8.524;2022-11-04T00:57:11;10.38;;;5.03;;
46006;SDS011;31738;50.188;8.524;2022-11-04T00:59:37;9.00;;;4.35;;
46006;SDS011;31738;50.188;8.524;2022-11-04T01:02:04;7.75;;;4.43;;
46006;SDS011;31738;50.188;8.524;2022-11-04T01:04:30;7.75;;;4.55;;
46006;SDS011;31738;50.188;8.524;2022-11-04T01:06:55;7.13;;;4.15;;
46006;SDS011;31738;50.188;8.524;2022-11-04T01:09:21;11.02;;;4.50;;
46006;SDS011;31738;50.188;8.524;2022-11-04T01:11:47;7.53;;;4.65;;
46006;SDS011;31738;50.188;8.524;2022-11-04T01:14:13;7.03;;;4.63;;
46006;SDS011;31738;50.188;8.524;2022-11-04T01:16:38;9.15;;;4.38;;
46006;SDS011;31738;50.188;8.524;2022-11-04T01:19:04;7.25;;;3.92;;
46006;SDS011;31738;50.188;8.524;2022-11-04T01:21:30;6.75;;;3.83;;
46006;SDS011;31738;50.188;8.524;2022-11-04T01:23:55;7.25;;;4.07;;
46006;SDS011;31738;50.188;8.524;2022-11-04T01:26:22;6.75;;;3.85;;
46006;SDS011;31738;50.188;8.524;2022-11-04T01:28:49;7.45;;;3.80;;
46006;SDS011;31738;50.188;8.524;2022-11-04T01:31:17;13.88;;;4.07;;
46006;SDS011;31738;50.188;8.524;2022-11-04T01:33:45;7.57;;;4.18;;
46006;SDS011;31738;50.188;8.524;2022-11-04T01:36:12;5.38;;;3.58;;
46006;SDS011;31738;50.188;8.524;2022-11-04T01:38:38;7.03;;;3.47;;
46006;SDS011;31738;50.188;8.524;2022-11-04T01:41:04;6.68;;;3.88;;
46006;SDS011;31738;50.188;8.524;2022-11-04T01:46:33;6.32;;;3.55;;
46006;SDS011;31738;50.188;8.524;2022-11-04T01:49:49;7.82;;;3.15;;
46006;SDS011;31738;50.188;8.524;2022-11-04T01:52:00;6.40;;;3.38;;
46006;SDS011;31738;50.188;8.524;2022-11-04T01:54:29;6.15;;;3.70;;
46006;SDS011;31738;50.188;8.524;2022-11-04T01:56:56;9.35;;;3.88;;
46006;SDS011;31738;50.188;8.524;2022-11-04T01:59:26;5.38;;;3.25;;
46006;SDS011;31738;50.188;8.524;2022-11-04T02:01:54;7.90;;;3.67;;
46006;SDS011;31738;50.188;8.524;2022-11-04T02:04:20;6.82;;;3.03;;
46006;SDS011;31738;50.188;8.524;2022-11-04T02:06:53;6.55;;;3.97;;
46006;SDS011;31738;50.188;8.524;2022-11-04T02:09:24;7.47;;;3.60;;
46006;SDS011;31738;50.188;8.524;2022-11-04T02:11:51;6.13;;;3.17;;
46006;SDS011;31738;50.188;8.524;2022-11-04T02:14:36;5.10;;;3.38;;
46006;SDS011;31738;50.188;8.524;2022-11-04T02:17:06;6.90;;;2.85;;
46006;SDS011;31738;50.188;8.524;2022-11-04T02:22:49;6.13;;;3.03;;
46006;SDS011;31738;50.188;8.524;2022-11-04T02:28:32;3.42;;;2.28;;
46006;SDS011;31738;50.188;8.524;2022-11-04T02:31:13;3.55;;;2.38;;
46006;SDS011;31738;50.188;8.524;2022-11-04T02:34:04;4.03;;;2.50;;
46006;SDS011;31738;50.188;8.524;2022-11-04T02:36:42;3.88;;;2.50;;
46006;SDS011;31738;50.188;8.524;2022-11-04T02:42:29;4.15;;;2.10;;
46006;SDS011;31738;50.188;8.524;2022-11-04T02:45:20;8.35;;;2.50;;
46006;SDS011;31738;50.188;8.524;2022-11-04T02:47:53;5.00;;;2.30;;
46006;SDS011;31738;50.188;8.524;2022-11-04T02:50:33;5.40;;;2.20;;
46006;SDS011;31738;50.188;8.524;2022-11-04T02:53:11;5.70;;;2.25;;
46006;SDS011;31738;50.188;8.524;2022-11-04T02:55:45;3.90;;;2.05;;
46006;SDS011;31738;50.188;8.524;2022-11-04T02:58:26;3.88;;;2.22;;
46006;SDS011;31738;50.188;8.524;2022-11-04T03:00:56;5.65;;;1.98;;
46006;SDS011;31738;50.188;8.524;2022-11-04T03:03:44;6.00;;;1.80;;
46006;SDS011;31738;50.188;8.524;2022-11-04T03:06:39;4.75;;;2.00;;
46006;SDS011;31738;50.188;8.524;2022-11-04T03:09:19;4.80;;;2.22;;
46006;SDS011;31738;50.188;8.524;2022-11-04T03:12:03;4.88;;;2.00;;
46006;SDS011;31738;50.188;8.524;2022-11-04T03:14:42;5.97;;;2.03;;
46006;SDS011;31738;50.188;8.524;2022-11-04T03:17:23;4.03;;;2.08;;
46006;SDS011;31738;50.188;8.524;2022-11-04T03:20:06;4.63;;;1.65;;
46006;SDS011;31738;50.188;8.524;2022-11-04T03:22:42;4.75;;;2.13;;
46006;SDS011;31738;50.188;8.524;2022-11-04T03:25:08;7.05;;;1.92;;
46006;SDS011;31738;50.188;8.524;2022-11-04T03:27:53;3.50;;;1.77;;
46006;SDS011;31738;50.188;8.524;2022-11-04T03:30:21;4.93;;;2.20;;
46006;SDS011;31738;50.188;8.524;2022-11-04T03:33:02;2.95;;;1.83;;
46006;SDS011;31738;50.188;8.524;2022-11-04T03:35:36;3.97;;;1.60;;
46006;SDS011;31738;50.188;8.524;2022-11-04T03:38:02;3.67;;;1.60;;
46006;SDS011;31738;50.188;8.524;2022-11-04T03:40:28;3.55;;;1.83;;
46006;SDS011;31738;50.188;8.524;2022-11-04T03:42:58;3.13;;;1.45;;
46006;SDS011;31738;50.188;8.524;2022-11-04T03:45:27;3.13;;;1.60;;
46006;SDS011;31738;50.188;8.524;2022-11-04T03:47:54;4.28;;;1.70;;
46006;SDS011;31738;50.188;8.524;2022-11-04T03:50:32;3.15;;;1.67;;
46006;SDS011;31738;50.188;8.524;2022-11-04T03:53:03;8.73;;;1.75;;
46006;SDS011;31738;50.188;8.524;2022-11-04T03:58:07;3.72;;;1.55;;
46006;SDS011;31738;50.188;8.524;2022-11-04T04:00:55;5.05;;;1.50;;
46006;SDS011;31738;50.188;8.524;2022-11-04T04:03:40;4.63;;;1.60;;
46006;SDS011;31738;50.188;8.524;2022-11-04T04:06:19;2.28;;;1.23;;
46006;SDS011;31738;50.188;8.524;2022-11-04T04:08:55;4.50;;;1.40;;
46006;SDS011;31738;50.188;8.524;2022-11-04T04:17:40;5.18;;;1.55;;
46006;SDS011;31738;50.188;8.524;2022-11-04T04:20:11;4.40;;;1.50;;
46006;SDS011;31738;50.188;8.524;2022-11-04T04:25:57;5.25;;;1.60;;
46006;SDS011;31738;50.188;8.524;2022-11-04T04:28:52;5.00;;;1.30;;
46006;SDS011;31738;50.188;8.524;2022-11-04T04:31:20;3.03;;;1.33;;
46006;SDS011;31738;50.188;8.524;2022-11-04T04:34:33;5.72;;;1.40;;
46006;SDS011;31738;50.188;8.524;2022-11-04T04:37:10;2.80;;;1.33;;
46006;SDS011;31738;50.188;8.524;2022-11-04T04:39:55;2.88;;;1.40;;
46006;SDS011;31738;50.188;8.524;2022-11-04T04:42:42;2.60;;;1.55;;
46006;SDS011;31738;50.188;8.524;2022-11-04T04:45:31;5.53;;;1.40;;
46006;SDS011;31738;50.188;8.524;2022-11-04T04:48:04;10.15;;;1.75;;
46006;SDS011;31738;50.188;8.524;2022-11-04T04:50:34;3.72;;;1.15;;
46006;SDS011;31738;50.188;8.524;2022-11-04T04:53:06;5.20;;;1.17;;
46006;SDS011;31738;50.188;8.524;2022-11-04T04:55:32;4.40;;;1.50;;
46006;SDS011;31738;50.188;8.524;2022-11-04T04:58:00;8.02;;;1.73;;
46006;SDS011;31738;50.188;8.524;2022-11-04T05:00:26;6.68;;;1.65;;
46006;SDS011;31738;50.188;8.524;2022-11-04T05:02:57;3.65;;;1.20;;
46006;SDS011;31738;50.188;8.524;2022-11-04T05:05:25;3.78;;;1.70;;
46006;SDS011;31738;50.188;8.524;2022-11-04T05:07:54;8.45;;;1.85;;
46006;SDS011;31738;50.188;8.524;2022-11-04T05:10:27;4.07;;;1.50;;
46006;SDS011;31738;50.188;8.524;2022-11-04T05:12:56;3.70;;;1.40;;
46006;SDS011;31738;50.188;8.524;2022-11-04T05:15:41;3.50;;;1.20;;
46006;SDS011;31738;50.188;8.524;2022-11-04T05:18:16;6.57;;;1.85;;
46006;SDS011;31738;50.188;8.524;2022-11-04T05:20:42;2.58;;;1.42;;
46006;SDS011;31738;50.188;8.524;2022-11-04T05:23:11;6.38;;;1.83;;
46006;SDS011;31738;50.188;8.524;2022-11-04T05:25:45;5.22;;;1.70;;
46006;SDS011;31738;50.188;8.524;2022-11-04T05:28:11;4.13;;;1.70;;
46006;SDS011;31738;50.188;8.524;2022-11-04T05:30:37;3.95;;;1.67;;
46006;SDS011;31738;50.188;8.524;2022-11-04T05:33:05;6.40;;;2.30;;
46006;SDS011;31738;50.188;8.524;2022-11-04T05:35:37;7.35;;;2.30;;
46006;SDS011;31738;50.188;8.524;2022-11-04T05:41:07;7.05;;;2.20;;
46006;SDS011;31738;50.188;8.524;2022-11-04T05:43:53;4.85;;;2.20;;
46006;SDS011;31738;50.188;8.524;2022-11-04T05:46:26;4.82;;;2.20;;
46006;SDS011;31738;50.188;8.524;2022-11-04T05:48:53;6.13;;;2.60;;
46006;SDS011;31738;50.188;8.524;2022-11-04T05:51:29;4.47;;;2.30;;
46006;SDS011;31738;50.188;8.524;2022-11-04T05:53:55;7.07;;;2.53;;
46006;SDS011;31738;50.188;8.524;2022-11-04T05:56:27;7.05;;;2.75;;
46006;SDS011;31738;50.188;8.524;2022-11-04T05:58:53;6.53;;;2.45;;
46006;SDS011;31738;50.188;8.524;2022-11-04T06:01:32;7.70;;;2.72;;
46006;SDS011;31738;50.188;8.524;2022-11-04T06:04:03;5.43;;;2.50;;
46006;SDS011;31738;50.188;8.524;2022-11-04T06:06:35;7.95;;;3.35;;
46006;SDS011;31738;50.188;8.524;2022-11-04T06:09:02;5.90;;;2.25;;
46006;SDS011;31738;50.188;8.524;2022-11-04T06:11:34;12.50;;;2.50;;
46006;SDS011;31738;50.188;8.524;2022-11-04T06:14:03;5.13;;;2.45;;
46006;SDS011;31738;50.188;8.524;2022-11-04T06:16:29;5.93;;;2.35;;
46006;SDS011;31738;50.188;8.524;2022-11-04T06:18:58;6.57;;;2.20;;
46006;SDS011;31738;50.188;8.524;2022-11-04T06:21:27;7.72;;;2.58;;
46006;SDS011;31738;50.188;8.524;2022-11-04T06:23:59;8.02;;;3.35;;
46006;SDS011;31738;50.188;8.524;2022-11-04T06:26:26;9.93;;;2.97;;
46006;SDS011;31738;50.188;8.524;2022-11-04T06:28:53;8.70;;;2.47;;
46006;SDS011;31738;50.188;8.524;2022-11-04T06:31:19;6.13;;;2.55;;
46006;SDS011;31738;50.188;8.524;2022-11-04T06:33:45;6.72;;;2.78;;
46006;SDS011;31738;50.188;8.524;2022-11-04T06:36:13;5.97;;;2.80;;
46006;SDS011;31738;50.188;8.524;2022-11-04T06:38:39;6.32;;;2.53;;
46006;SDS011;31738;50.188;8.524;2022-11-04T06:41:06;9.25;;;2.70;;
46006;SDS011;31738;50.188;8.524;2022-11-04T06:43:37;8.40;;;3.22;;
46006;SDS011;31738;50.188;8.524;2022-11-04T06:46:03;9.70;;;3.38;;
46006;SDS011;31738;50.188;8.524;2022-11-04T06:48:29;8.73;;;2.92;;
46006;SDS011;31738;50.188;8.524;2022-11-04T06:50:56;9.07;;;3.35;;
46006;SDS011;31738;50.188;8.524;2022-11-04T06:53:23;14.57;;;3.40;;
46006;SDS011;31738;50.188;8.524;2022-11-04T06:55:48;8.32;;;3.72;;
46006;SDS011;31738;50.188;8.524;2022-11-04T06:58:15;9.13;;;3.80;;
46006;SDS011;31738;50.188;8.524;2022-11-04T07:00:41;9.25;;;3.65;;
46006;SDS011;31738;50.188;8.524;2022-11-04T07:03:07;7.43;;;4.22;;
46006;SDS011;31738;50.188;8.524;2022-11-04T07:05:34;7.53;;;3.38;;
46006;SDS011;31738;50.188;8.524;2022-11-04T07:07:59;7.45;;;3.28;;
46006;SDS011;31738;50.188;8.524;2022-11-04T07:10:25;6.20;;;3.45;;
46006;SDS011;31738;50.188;8.524;2022-11-04T07:12:50;10.77;;;3.50;;
46006;SDS011;31738;50.188;8.524;2022-11-04T07:15:16;10.07;;;4.22;;
46006;SDS011;31738;50.188;8.524;2022-11-04T07:17:42;7.13;;;3.83;;
46006;SDS011;31738;50.188;8.524;2022-11-04T07:20:09;7.80;;;3.67;;
46006;SDS011;31738;50.188;8.524;2022-11-04T07:22:37;8.70;;;3.75;;
46006;SDS011;31738;50.188;8.524;2022-11-04T07:25:03;6.78;;;3.03;;
46006;SDS011;31738;50.188;8.524;2022-11-04T07:27:30;10.40;;;3.65;;
46006;SDS011;31738;50.188;8.524;2022-11-04T07:29:55;8.77;;;3.72;;
46006;SDS011;31738;50.188;8.524;2022-11-04T07:32:21;6.18;;;3.22;;
46006;SDS011;31738;50.188;8.524;2022-11-04T07:34:46;10.57;;;3.42;;
46006;SDS011;31738;50.188;8.524;2022-11-04T07:37:12;10.75;;;3.88;;
46006;SDS011;31738;50.188;8.524;2022-11-04T07:39:37;6.47;;;3.10;;
46006;SDS011;31738;50.188;8.524;2022-11-04T07:42:03;8.50;;;3.55;;
46006;SDS011;31738;50.188;8.524;2022-11-04T07:44:28;10.48;;;3.22;;
46006;SDS011;31738;50.188;8.524;2022-11-04T07:46:54;11.43;;;3.83;;
46006;SDS011;31738;50.188;8.524;2022-11-04T07:49:19;11.70;;;4.07;;
46006;SDS011;31738;50.188;8.524;2022-11-04T07:51:45;10.38;;;3.92;;
46006;SDS011;31738;50.188;8.524;2022-11-04T07:54:12;13.55;;;4.22;;
46006;SDS011;31738;50.188;8.524;2022-11-04T07:56:38;12.48;;;3.72;;
46006;SDS011;31738;50.188;8.524;2022-11-04T07:59:06;11.85;;;4.00;;
46006;SDS011;31738;50.188;8.524;2022-11-04T08:01:32;11.40;;;3.90;;
46006;SDS011;31738;50.188;8.524;2022-11-04T08:03:57;13.75;;;3.50;;
46006;SDS011;31738;50.188;8.524;2022-11-04T08:06:23;7.15;;;3.50;;
46006;SDS011;31738;50.188;8.524;2022-11-04T08:08:48;12.20;;;3.97;;
46006;SDS011;31738;50.188;8.524;2022-11-04T08:11:20;8.80;;;4.03;;
46006;SDS011;31738;50.188;8.524;2022-11-04T08:13:48;9.65;;;4.68;;
46006;SDS011;31738;50.188;8.524;2022-11-04T08:16:18;11.93;;;5.78;;
46006;SDS011;31738;50.188;8.524;2022-11-04T08:18:45;11.18;;;5.03;;
46006;SDS011;31738;50.188;8.524;2022-11-04T08:21:12;15.43;;;4.95;;
46006;SDS011;31738;50.188;8.524;2022-11-04T08:23:38;16.60;;;5.93;;
46006;SDS011;31738;50.188;8.524;2022-11-04T08:26:07;16.90;;;5.90;;
46006;SDS011;31738;50.188;8.524;2022-11-04T08:28:34;15.13;;;6.25;;
46006;SDS011;31738;50.188;8.524;2022-11-04T08:31:01;11.88;;;5.68;;
46006;SDS011;31738;50.188;8.524;2022-11-04T08:33:29;12.35;;;5.90;;
46006;SDS011;31738;50.188;8.524;2022-11-04T08:35:58;13.50;;;5.68;;
46006;SDS011;31738;50.188;8.524;2022-11-04T08:38:25;12.25;;;5.75;;
46006;SDS011;31738;50.188;8.524;2022-11-04T08:40:51;16.25;;;5.22;;
46006;SDS011;31738;50.188;8.524;2022-11-04T08:43:20;16.10;;;5.38;;
46006;SDS011;31738;50.188;8.524;2022-11-04T08:45:45;10.32;;;5.45;;
46006;SDS011;31738;50.188;8.524;2022-11-04T08:48:11;12.80;;;5.18;;
46006;SDS011;31738;50.188;8.524;2022-11-04T08:50:38;12.30;;;5.38;;
46006;SDS011;31738;50.188;8.524;2022-11-04T08:53:25;13.10;;;5.18;;
46006;SDS011;31738;50.188;8.524;2022-11-04T08:56:12;11.73;;;4.60;;
46006;SDS011;31738;50.188;8.524;2022-11-04T08:58:56;10.38;;;4.57;;
46006;SDS011;31738;50.188;8.524;2022-11-04T09:01:29;10.50;;;4.97;;
46006;SDS011;31738;50.188;8.524;2022-11-04T09:04:09;12.65;;;4.72;;
46006;SDS011;31738;50.188;8.524;2022-11-04T09:06:51;18.58;;;5.05;;
46006;SDS011;31738;50.188;8.524;2022-11-04T09:09:20;11.52;;;4.50;;
46006;SDS011;31738;50.188;8.524;2022-11-04T09:11:48;11.90;;;4.90;;
46006;SDS011;31738;50.188;8.524;2022-11-04T09:16:49;14.85;;;5.72;;
46006;SDS011;31738;50.188;8.524;2022-11-04T09:19:23;10.85;;;4.82;;
46006;SDS011;31738;50.188;8.524;2022-11-04T09:22:02;12.50;;;4.85;;
46006;SDS011;31738;50.188;8.524;2022-11-04T09:24:36;11.18;;;5.38;;
46006;SDS011;31738;50.188;8.524;2022-11-04T09:27:05;14.90;;;5.13;;
46006;SDS011;31738;50.188;8.524;2022-11-04T09:29:47;11.10;;;5.28;;
46006;SDS011;31738;50.188;8.524;2022-11-04T09:32:16;15.55;;;5.30;;
46006;SDS011;31738;50.188;8.524;2022-11-04T09:34:41;14.15;;;4.35;;
46006;SDS011;31738;50.188;8.524;2022-11-04T09:37:09;15.75;;;4.65;;
46006;SDS011;31738;50.188;8.524;2022-11-04T09:39:40;10.13;;;4.10;;
46006;SDS011;31738;50.188;8.524;2022-11-04T09:45:02;14.23;;;4.70;;
46006;SDS011;31738;50.188;8.524;2022-11-04T09:47:39;13.23;;;4.47;;
46006;SDS011;31738;50.188;8.524;2022-11-04T09:50:09;11.05;;;4.95;;
46006;SDS011;31738;50.188;8.524;2022-11-04T09:53:05;10.27;;;4.45;;
46006;SDS011;31738;50.188;8.524;2022-11-04T09:56:17;12.50;;;4.38;;
46006;SDS011;31738;50.188;8.524;2022-11-04T09:58:49;11.35;;;4.28;;
46006;SDS011;31738;50.188;8.524;2022-11-04T10:01:25;13.52;;;4.75;;
46006;SDS011;31738;50.188;8.524;2022-11-04T10:04:11;9.55;;;4.78;;
46006;SDS011;31738;50.188;8.524;2022-11-04T10:12:49;14.18;;;4.85;;
46006;SDS011;31738;50.188;8.524;2022-11-04T10:18:28;14.10;;;5.15;;
46006;SDS011;31738;50.188;8.524;2022-11-04T10:26:56;9.13;;;4.10;;
46006;SDS011;31738;50.188;8.524;2022-11-04T10:29:41;14.38;;;4.75;;
46006;SDS011;31738;50.188;8.524;2022-11-04T10:32:18;8.13;;;3.72;;
46006;SDS011;31738;50.188;8.524;2022-11-04T10:38:21;12.57;;;4.38;;
46006;SDS011;31738;50.188;8.524;2022-11-04T10:44:09;9.38;;;3.60;;
46006;SDS011;31738;50.188;8.524;2022-11-04T10:52:43;12.40;;;4.50;;
46006;SDS011;31738;50.188;8.524;2022-11-04T10:55:33;10.45;;;4.43;;
46006;SDS011;31738;50.188;8.524;2022-11-04T10:58:17;8.73;;;3.95;;
46006;SDS011;31738;50.188;8.524;2022-11-04T11:00:55;9.60;;;4.13;;
46006;SDS011;31738;50.188;8.524;2022-11-04T11:03:36;7.95;;;3.72;;
46006;SDS011;31738;50.188;8.524;2022-11-04T11:06:25;6.50;;;3.58;;
46006;SDS011;31738;50.188;8.524;2022-11-04T11:15:07;10.40;;;4.33;;
46006;SDS011;31738;50.188;8.524;2022-11-04T11:20:32;13.73;;;4.97;;
46006;SDS011;31738;50.188;8.524;2022-11-04T11:26:28;17.60;;;4.47;;
46006;SDS011;31738;50.188;8.524;2022-11-04T11:29:09;13.63;;;5.10;;
46006;SDS011;31738;50.188;8.524;2022-11-04T11:31:42;14.60;;;4.85;;
46006;SDS011;31738;50.188;8.524;2022-11-04T11:34:19;10.98;;;4.60;;
46006;SDS011;31738;50.188;8.524;2022-11-04T11:36:58;11.63;;;4.30;;
46006;SDS011;31738;50.188;8.524;2022-11-04T11:39:37;11.52;;;4.50;;
46006;SDS011;31738;50.188;8.524;2022-11-04T11:42:13;12.82;;;3.88;;
46006;SDS011;31738;50.188;8.524;2022-11-04T11:44:59;8.45;;;3.40;;
46006;SDS011;31738;50.188;8.524;2022-11-04T11:47:52;5.63;;;3.40;;
46006;SDS011;31738;50.188;8.524;2022-11-04T11:50:27;8.80;;;3.97;;
46006;SDS011;31738;50.188;8.524;2022-11-04T11:53:13;9.23;;;3.45;;
46006;SDS011;31738;50.188;8.524;2022-11-04T11:58:54;12.93;;;3.40;;
46006;SDS011;31738;50.188;8.524;2022-11-04T12:05:09;8.45;;;3.40;;
46006;SDS011;31738;50.188;8.524;2022-11-04T12:11:06;8.35;;;2.70;;
46006;SDS011;31738;50.188;8.524;2022-11-04T12:13:52;8.55;;;3.47;;
46006;SDS011;31738;50.188;8.524;2022-11-04T12:16:41;10.00;;;2.95;;
46006;SDS011;31738;50.188;8.524;2022-11-04T12:19:38;11.00;;;2.95;;
46006;SDS011;31738;50.188;8.524;2022-11-04T12:25:39;7.90;;;3.25;;
46006;SDS011;31738;50.188;8.524;2022-11-04T12:31:32;10.40;;;3.30;;
46006;SDS011;31738;50.188;8.524;2022-11-04T12:37:35;7.57;;;2.70;;
46006;SDS011;31738;50.188;8.524;2022-11-04T12:49:30;11.90;;;3.28;;
46006;SDS011;31738;50.188;8.524;2022-11-04T13:05:21;9.20;;;1.98;;
46006;SDS011;31738;50.188;8.524;2022-11-04T13:08:23;7.75;;;1.80;;
46006;SDS011;31738;50.188;8.524;2022-11-04T13:11:11;5.40;;;1.65;;
46006;SDS011;31738;50.188;8.524;2022-11-04T13:13:52;6.78;;;2.00;;
46006;SDS011;31738;50.188;8.524;2022-11-04T13:16:24;12.75;;;2.58;;
46006;SDS011;31738;50.188;8.524;2022-11-04T13:18:52;4.57;;;1.85;;
46006;SDS011;31738;50.188;8.524;2022-11-04T13:21:22;11.98;;;1.77;;
46006;SDS011;31738;50.188;8.524;2022-11-04T13:24:05;8.52;;;2.20;;
46006;SDS011;31738;50.188;8.524;2022-11-04T13:26:40;5.80;;;1.98;;
46006;SDS011;31738;50.188;8.524;2022-11-04T13:29:11;5.85;;;1.60;;
46006;SDS011;31738;50.188;8.524;2022-11-04T13:34:32;4.38;;;1.40;;
46006;SDS011;31738;50.188;8.524;2022-11-04T13:37:47;11.13;;;1.83;;
46006;SDS011;31738;50.188;8.524;2022-11-04T13:45:49;7.47;;;1.67;;
46006;SDS011;31738;50.188;8.524;2022-11-04T13:48:19;7.55;;;2.28;;
46006;SDS011;31738;50.188;8.524;2022-11-04T13:51:03;7.13;;;2.33;;
46006;SDS011;31738;50.188;8.524;2022-11-04T13:53:41;11.15;;;2.17;;
46006;SDS011;31738;50.188;8.524;2022-11-04T13:56:23;9.40;;;1.45;;
46006;SDS011;31738;50.188;8.524;2022-11-04T13:58:55;3.75;;;1.50;;
46006;SDS011;31738;50.188;8.524;2022-11-04T14:01:25;4.72;;;1.50;;
46006;SDS011;31738;50.188;8.524;2022-11-04T14:03:54;5.90;;;1.60;;
46006;SDS011;31738;50.188;8.524;2022-11-04T14:06:46;5.95;;;1.70;;
46006;SDS011;31738;50.188;8.524;2022-11-04T14:14:45;7.00;;;1.88;;
46006;SDS011;31738;50.188;8.524;2022-11-04T14:27:44;4.18;;;1.70;;
46006;SDS011;31738;50.188;8.524;2022-11-04T14:30:28;3.45;;;1.90;;
46006;SDS011;31738;50.188;8.524;2022-11-04T14:32:58;4.40;;;1.80;;
46006;SDS011;31738;50.188;8.524;2022-11-04T14:35:27;5.47;;;2.10;;
46006;SDS011;31738;50.188;8.524;2022-11-04T14:37:53;8.88;;;1.92;;
46006;SDS011;31738;50.188;8.524;2022-11-04T14:40:24;7.82;;;1.90;;
46006;SDS011;31738;50.188;8.524;2022-11-04T14:43:26;8.95;;;2.03;;
46006;SDS011;31738;50.188;8.524;2022-11-04T14:48:21;7.45;;;2.03;;
46006;SDS011;31738;50.188;8.524;2022-11-04T14:50:50;8.48;;;2.63;;
46006;SDS011;31738;50.188;8.524;2022-11-04T14:53:22;6.82;;;2.17;;
46006;SDS011;31738;50.188;8.524;2022-11-04T14:56:14;10.07;;;2.28;;
46006;SDS011;31738;50.188;8.524;2022-11-04T14:58:53;7.43;;;2.20;;
46006;SDS011;31738;50.188;8.524;2022-11-04T15:01:24;11.60;;;2.22;;
46006;SDS011;31738;50.188;8.524;2022-11-04T15:03:53;9.95;;;2.70;;
46006;SDS011;31738;50.188;8.524;2022-11-04T15:06:27;7.97;;;2.38;;
46006;SDS011;31738;50.188;8.524;2022-11-04T15:08:54;7.97;;;2.53;;
46006;SDS011;31738;50.188;8.524;2022-11-04T15:11:22;13.98;;;3.05;;
46006;SDS011;31738;50.188;8.524;2022-11-04T15:14:23;7.00;;;2.63;;
46006;SDS011;31738;50.188;8.524;2022-11-04T15:16:57;11.90;;;3.08;;
46006;SDS011;31738;50.188;8.524;2022-11-04T15:19:28;5.75;;;2.20;;
46006;SDS011;31738;50.188;8.524;2022-11-04T15:21:55;8.27;;;2.45;;
46006;SDS011;31738;50.188;8.524;2022-11-04T15:24:23;8.63;;;2.72;;
46006;SDS011;31738;50.188;8.524;2022-11-04T15:26:51;11.23;;;2.53;;
46006;SDS011;31738;50.188;8.524;2022-11-04T15:29:23;9.20;;;2.60;;
46006;SDS011;31738;50.188;8.524;2022-11-04T15:31:59;10.48;;;2.67;;
46006;SDS011;31738;50.188;8.524;2022-11-04T15:34:27;6.47;;;2.20;;
46006;SDS011;31738;50.188;8.524;2022-11-04T15:36:58;8.20;;;2.50;;
46006;SDS011;31738;50.188;8.524;2022-11-04T15:41:57;14.38;;;3.47;;
46006;SDS011;31738;50.188;8.524;2022-11-04T15:44:46;5.65;;;2.63;;
46006;SDS011;31738;50.188;8.524;2022-11-04T15:49:43;5.88;;;2.10;;
46006;SDS011;31738;50.188;8.524;2022-11-04T15:52:20;8.95;;;2.90;;
46006;SDS011;31738;50.188;8.524;2022-11-04T15:54:51;7.07;;;2.38;;
46006;SDS011;31738;50.188;8.524;2022-11-04T15:57:19;6.45;;;2.47;;
46006;SDS011;31738;50.188;8.524;2022-11-04T16:00:05;8.38;;;2.65;;
46006;SDS011;31738;50.188;8.524;2022-11-04T16:02:44;6.20;;;2.33;;
46006;SDS011;31738;50.188;8.524;2022-11-04T16:07:37;8.23;;;3.10;;
46006;SDS011;31738;50.188;8.524;2022-11-04T16:15:31;7.25;;;2.20;;
46006;SDS011;31738;50.188;8.524;2022-11-04T16:18:00;8.77;;;2.53;;
46006;SDS011;31738;50.188;8.524;2022-11-04T16:20:27;7.50;;;2.45;;
46006;SDS011;31738;50.188;8.524;2022-11-04T16:22:56;5.80;;;1.95;;
46006;SDS011;31738;50.188;8.524;2022-11-04T16:25:24;3.42;;;1.60;;
46006;SDS011;31738;50.188;8.524;2022-11-04T16:27:53;5.93;;;1.92;;
46006;SDS011;31738;50.188;8.524;2022-11-04T16:30:20;6.75;;;1.80;;
46006;SDS011;31738;50.188;8.524;2022-11-04T16:32:48;6.63;;;2.10;;
46006;SDS011;31738;50.188;8.524;2022-11-04T16:35:21;4.90;;;1.98;;
46006;SDS011;31738;50.188;8.524;2022-11-04T16:37:52;6.60;;;2.05;;
46006;SDS011;31738;50.188;8.524;2022-11-04T16:40:25;8.55;;;2.15;;
46006;SDS011;31738;50.188;8.524;2022-11-04T16:42:51;6.85;;;2.40;;
46006;SDS011;31738;50.188;8.524;2022-11-04T16:47:49;2.78;;;1.67;;
46006;SDS011;31738;50.188;8.524;2022-11-04T16:50:15;3.88;;;1.85;;
46006;SDS011;31738;50.188;8.524;2022-11-04T16:52:41;4.53;;;1.60;;
46006;SDS011;31738;50.188;8.524;2022-11-04T16:55:07;5.18;;;1.77;;
46006;SDS011;31738;50.188;8.524;2022-11-04T16:57:33;5.13;;;2.28;;
46006;SDS011;31738;50.188;8.524;2022-11-04T16:59:59;7.15;;;1.98;;
46006;SDS011;31738;50.188;8.524;2022-11-04T17:02:28;5.50;;;2.25;;
46006;SDS011;31738;50.188;8.524;2022-11-04T17:04:56;6.82;;;1.83;;
46006;SDS011;31738;50.188;8.524;2022-11-04T17:07:23;7.88;;;2.40;;
46006;SDS011;31738;50.188;8.524;2022-11-04T17:09:49;6.43;;;2.17;;
46006;SDS011;31738;50.188;8.524;2022-11-04T17:12:14;6.63;;;2.60;;
46006;SDS011;31738;50.188;8.524;2022-11-04T17:14:43;7.75;;;2.00;;
46006;SDS011;31738;50.188;8.524;2022-11-04T17:17:08;7.97;;;2.70;;
46006;SDS011;31738;50.188;8.524;2022-11-04T17:19:35;4.38;;;2.53;;
46006;SDS011;31738;50.188;8.524;2022-11-04T17:22:01;6.20;;;2.33;;
46006;SDS011;31738;50.188;8.524;2022-11-04T17:24:34;2.75;;;1.60;;
46006;SDS011;31738;50.188;8.524;2022-11-04T17:27:00;3.67;;;1.70;;
46006;SDS011;31738;50.188;8.524;2022-11-04T17:29:26;2.60;;;2.10;;
46006;SDS011;31738;50.188;8.524;2022-11-04T17:31:52;6.25;;;1.98;;
46006;SDS011;31738;50.188;8.524;2022-11-04T17:34:18;6.65;;;2.00;;
46006;SDS011;31738;50.188;8.524;2022-11-04T17:36:44;5.25;;;1.67;;
46006;SDS011;31738;50.188;8.524;2022-11-04T17:39:12;7.10;;;2.60;;
46006;SDS011;31738;50.188;8.524;2022-11-04T17:41:38;6.07;;;4.32;;
46006;SDS011;31738;50.188;8.524;2022-11-04T17:44:25;6.68;;;4.38;;
46006;SDS011;31738;50.188;8.524;2022-11-04T17:46:51;5.65;;;3.50;;
46006;SDS011;31738;50.188;8.524;2022-11-04T17:49:18;5.55;;;2.33;;
46006;SDS011;31738;50.188;8.524;2022-11-04T17:51:46;6.00;;;2.50;;
46006;SDS011;31738;50.188;8.524;2022-11-04T17:54:13;5.38;;;3.30;;